Time;durP1;ratioP1;P1;durP2;ratioP2;P2;SDS_P1;SDS_P2;PMS_P1;PMS_P2;Temp;Humidity;BMP_temperature;BMP_pressure;BME280_temperature;BME280_humidity;BME280_pressure;Samples;Min_cycle;Max_cycle;Signal;HPM_P1;HPM_P2
2022/10/10 00:00:30;;;;;;;4.78;1.55;;;;;;;;;;5051147;28;20041;-84
2022/10/10 00:03:12;;;;;;;4.35;1.60;;;;;;;;;;5060713;28;20778;-84
2022/10/10 00:06:47;;;;;;;5.07;1.48;;;;;;;;;;5051120;28;20484;-84
2022/10/10 00:11:03;;;;;;;4.68;1.70;;;;;;;;;;5043797;28;20468;-84
2022/10/10 00:13:46;;;;;;;5.82;1.60;;;;;;;;;;4976897;28;20146;-84
2022/10/10 00:16:28;;;;;;;3.85;1.75;;;;;;;;;;5006498;28;20053;-84
2022/10/10 00:19:00;;;;;;;3.53;1.50;;;;;;;;;;5008413;28;20085;-84
2022/10/10 00:21:42;;;;;;;4.82;1.75;;;;;;;;;;4980123;28;20472;-84
2022/10/10 00:24:24;;;;;;;4.43;1.63;;;;;;;;;;4975651;28;20053;-84
2022/10/10 00:28:29;;;;;;;2.92;1.23;;;;;;;;;;4995104;28;20092;-85
2022/10/10 00:31:46;;;;;;;4.57;1.67;;;;;;;;;;5014706;28;20106;-85
2022/10/10 00:34:28;;;;;;;4.35;1.48;;;;;;;;;;4983290;28;20108;-84
2022/10/10 00:37:32;;;;;;;5.55;1.50;;;;;;;;;;5023232;28;20341;-84
2022/10/10 00:40:48;;;;;;;5.45;1.48;;;;;;;;;;5025119;28;20596;-85
2022/10/10 00:43:49;;;;;;;4.13;1.50;;;;;;;;;;4957325;28;20490;-85
2022/10/10 00:47:01;;;;;;;2.90;1.55;;;;;;;;;;4985389;28;20251;-84
2022/10/10 00:49:48;;;;;;;4.85;1.20;;;;;;;;;;4993194;28;20061;-84
2022/10/10 00:52:35;;;;;;;8.20;1.92;;;;;;;;;;4989656;28;20053;-85
2022/10/10 00:55:20;;;;;;;6.35;1.88;;;;;;;;;;5002170;28;20050;-85
2022/10/10 00:58:08;;;;;;;8.20;1.70;;;;;;;;;;5007840;28;20137;-84
2022/10/10 01:01:13;;;;;;;2.53;1.25;;;;;;;;;;4998612;28;20579;-84
2022/10/10 01:04:40;;;;;;;4.75;1.58;;;;;;;;;;4998281;28;20042;-85
2022/10/10 01:08:28;;;;;;;3.90;1.23;;;;;;;;;;5001112;28;20120;-85
2022/10/10 01:11:45;;;;;;;4.53;1.80;;;;;;;;;;4964171;28;20062;-85
2022/10/10 01:15:34;;;;;;;7.65;1.65;;;;;;;;;;4976402;28;20055;-85
2022/10/10 01:20:13;;;;;;;6.10;1.60;;;;;;;;;;4905936;29;20052;-85
2022/10/10 01:23:46;;;;;;;7.72;1.63;;;;;;;;;;4897168;29;20516;-85
2022/10/10 01:26:30;;;;;;;4.47;1.80;;;;;;;;;;4953752;28;20114;-84
2022/10/10 01:29:44;;;;;;;4.60;1.90;;;;;;;;;;4950583;28;20043;-85
2022/10/10 01:32:44;;;;;;;5.57;1.35;;;;;;;;;;4948406;28;20051;-84
2022/10/10 01:35:56;;;;;;;7.38;1.83;;;;;;;;;;4953719;28;20051;-84
2022/10/10 01:38:58;;;;;;;8.93;1.63;;;;;;;;;;4951481;29;20126;-84
2022/10/10 01:41:56;;;;;;;5.40;1.77;;;;;;;;;;4929903;29;20055;-85
2022/10/10 01:45:09;;;;;;;6.20;1.60;;;;;;;;;;4940342;29;20114;-85
2022/10/10 01:49:31;;;;;;;4.97;1.40;;;;;;;;;;4941696;28;20180;-85
2022/10/10 01:53:46;;;;;;;5.38;1.85;;;;;;;;;;4982360;28;20239;-84
2022/10/10 01:56:51;;;;;;;6.13;1.70;;;;;;;;;;4992735;28;20058;-84
2022/10/10 02:00:03;;;;;;;4.88;1.67;;;;;;;;;;4990664;28;20034;-84
2022/10/10 02:03:12;;;;;;;6.60;1.95;;;;;;;;;;4986708;28;20391;-85
2022/10/10 02:07:30;;;;;;;5.50;2.00;;;;;;;;;;5003384;28;20050;-85
2022/10/10 02:11:27;;;;;;;5.18;1.80;;;;;;;;;;5000878;28;20073;-85
2022/10/10 02:14:26;;;;;;;3.43;1.83;;;;;;;;;;5008123;28;20050;-85
2022/10/10 02:17:12;;;;;;;6.88;2.15;;;;;;;;;;4993278;28;20819;-85
2022/10/10 02:19:57;;;;;;;3.50;1.73;;;;;;;;;;5003557;28;20073;-85
2022/10/10 02:23:36;;;;;;;5.68;1.80;;;;;;;;;;4962773;28;20058;-85
2022/10/10 02:26:53;;;;;;;4.30;2.00;;;;;;;;;;4972542;28;20130;-85
2022/10/10 02:34:27;;;;;;;5.18;1.90;;;;;;;;;;4942847;28;20048;-85
2022/10/10 02:37:13;;;;;;;5.50;2.10;;;;;;;;;;4956570;28;20055;-84
2022/10/10 02:40:03;;;;;;;3.72;1.92;;;;;;;;;;4957890;28;20543;-85
2022/10/10 02:43:11;;;;;;;3.70;1.75;;;;;;;;;;5008637;28;20054;-85
2022/10/10 02:45:55;;;;;;;7.80;1.92;;;;;;;;;;4976593;28;20494;-85
2022/10/10 02:48:42;;;;;;;4.53;1.90;;;;;;;;;;5004587;28;20546;-84
2022/10/10 02:51:24;;;;;;;3.88;1.77;;;;;;;;;;4997291;28;20531;-85
2022/10/10 02:54:06;;;;;;;7.50;2.42;;;;;;;;;;5000250;28;20546;-85
2022/10/10 02:56:48;;;;;;;5.63;2.00;;;;;;;;;;4981913;28;20118;-85
2022/10/10 02:59:55;;;;;;;4.68;2.00;;;;;;;;;;4973942;28;20085;-85
2022/10/10 03:03:24;;;;;;;5.43;2.10;;;;;;;;;;4985518;28;21756;-85
2022/10/10 03:06:08;;;;;;;5.32;1.70;;;;;;;;;;4991505;28;20126;-84
2022/10/10 03:08:50;;;;;;;5.53;2.20;;;;;;;;;;5005887;28;20041;-84
2022/10/10 03:11:42;;;;;;;7.90;1.70;;;;;;;;;;5010289;28;20046;-84
2022/10/10 03:14:49;;;;;;;4.65;1.88;;;;;;;;;;5003785;28;20045;-84
2022/10/10 03:17:39;;;;;;;7.38;2.15;;;;;;;;;;4943356;28;20106;-84
2022/10/10 03:20:22;;;;;;;5.18;2.00;;;;;;;;;;4959069;28;20094;-85
2022/10/10 03:23:04;;;;;;;3.67;1.88;;;;;;;;;;4952422;28;20048;-84
2022/10/10 03:25:50;;;;;;;3.83;1.67;;;;;;;;;;4952190;28;20174;-84
2022/10/10 03:28:32;;;;;;;8.77;2.33;;;;;;;;;;4969125;28;20049;-84
2022/10/10 03:31:14;;;;;;;4.57;2.20;;;;;;;;;;4982559;28;20050;-85
2022/10/10 03:34:25;;;;;;;3.85;2.00;;;;;;;;;;4954524;28;20054;-84
2022/10/10 03:37:12;;;;;;;4.47;1.92;;;;;;;;;;4994177;28;20053;-85
2022/10/10 03:39:54;;;;;;;6.10;1.95;;;;;;;;;;4988020;28;20049;-85
2022/10/10 03:42:36;;;;;;;5.70;2.47;;;;;;;;;;4987490;28;20062;-85
2022/10/10 03:47:05;;;;;;;7.95;2.13;;;;;;;;;;4888801;29;20086;-85
2022/10/10 03:51:44;;;;;;;4.53;1.90;;;;;;;;;;5001840;28;20046;-84
2022/10/10 03:54:30;;;;;;;7.25;1.98;;;;;;;;;;4992640;28;20507;-84
2022/10/10 03:57:15;;;;;;;4.35;2.00;;;;;;;;;;4992505;28;20049;-84
2022/10/10 03:59:58;;;;;;;5.20;2.00;;;;;;;;;;4969626;28;20050;-85
2022/10/10 04:02:40;;;;;;;5.72;2.15;;;;;;;;;;4987896;28;20108;-85
2022/10/10 04:05:32;;;;;;;6.93;2.53;;;;;;;;;;5011882;28;20050;-84
2022/10/10 04:08:25;;;;;;;4.35;2.00;;;;;;;;;;4993003;28;20052;-84
2022/10/10 04:11:00;;;;;;;7.38;2.30;;;;;;;;;;5006938;28;20051;-84
2022/10/10 04:13:42;;;;;;;6.97;2.47;;;;;;;;;;5004323;28;20065;-84
2022/10/10 04:16:28;;;;;;;5.55;2.20;;;;;;;;;;5006201;28;20381;-85
2022/10/10 04:19:14;;;;;;;5.97;2.13;;;;;;;;;;5042178;28;20044;-84
2022/10/10 04:21:56;;;;;;;4.15;1.88;;;;;;;;;;5069857;28;20052;-84
2022/10/10 04:26:00;;;;;;;5.50;2.38;;;;;;;;;;4995934;28;20049;-85
2022/10/10 04:28:42;;;;;;;6.80;2.00;;;;;;;;;;5019896;28;20142;-85
2022/10/10 04:31:24;;;;;;;5.57;2.13;;;;;;;;;;5009540;28;20081;-85
2022/10/10 04:34:08;;;;;;;4.35;2.05;;;;;;;;;;4996199;28;20107;-84
2022/10/10 04:38:22;;;;;;;7.25;2.20;;;;;;;;;;4962929;28;20131;-85
2022/10/10 04:42:24;;;;;;;8.60;2.72;;;;;;;;;;4961956;28;20043;-85
2022/10/10 04:48:04;;;;;;;6.97;2.58;;;;;;;;;;4971292;28;20063;-84
2022/10/10 04:50:58;;;;;;;11.38;3.42;;;;;;;;;;4986008;28;20051;-85
2022/10/10 04:54:10;;;;;;;7.80;2.60;;;;;;;;;;4965811;28;20057;-85
2022/10/10 04:57:03;;;;;;;7.93;2.60;;;;;;;;;;5001279;28;20049;-85
2022/10/10 04:59:50;;;;;;;6.85;2.20;;;;;;;;;;4992952;28;20048;-84
2022/10/10 05:02:31;;;;;;;5.95;2.50;;;;;;;;;;4976436;28;20129;-84
2022/10/10 05:05:26;;;;;;;4.95;2.50;;;;;;;;;;5009404;28;20046;-84
2022/10/10 05:08:08;;;;;;;7.82;3.13;;;;;;;;;;5058793;28;20053;-84
2022/10/10 05:10:40;;;;;;;8.35;2.78;;;;;;;;;;5050787;28;20071;-84
2022/10/10 05:13:26;;;;;;;6.10;2.60;;;;;;;;;;5051556;28;20041;-84
2022/10/10 05:15:54;;;;;;;7.18;2.55;;;;;;;;;;5050815;28;20074;-84
2022/10/10 05:18:22;;;;;;;5.57;2.47;;;;;;;;;;5075840;28;20133;-84
2022/10/10 05:21:09;;;;;;;6.13;2.22;;;;;;;;;;5047519;28;20048;-84
2022/10/10 05:23:52;;;;;;;7.88;2.45;;;;;;;;;;5055158;28;20128;-84
2022/10/10 05:26:34;;;;;;;8.73;3.47;;;;;;;;;;5032267;28;20062;-85
2022/10/10 05:29:30;;;;;;;5.45;2.53;;;;;;;;;;5078314;28;20489;-84
2022/10/10 05:33:54;;;;;;;4.18;2.65;;;;;;;;;;5044534;28;20128;-85
2022/10/10 05:37:26;;;;;;;7.78;2.90;;;;;;;;;;5067174;28;20051;-84
2022/10/10 05:39:53;;;;;;;7.07;2.78;;;;;;;;;;5050465;28;20070;-84
2022/10/10 05:42:48;;;;;;;5.15;2.63;;;;;;;;;;5064017;28;20048;-84
2022/10/10 05:45:30;;;;;;;5.60;2.45;;;;;;;;;;5034825;28;20053;-84
2022/10/10 05:48:16;;;;;;;7.72;2.67;;;;;;;;;;5055843;28;20456;-85
2022/10/10 05:51:40;;;;;;;7.68;2.60;;;;;;;;;;4946335;28;20389;-85
2022/10/10 05:54:44;;;;;;;4.85;2.63;;;;;;;;;;4938369;29;20522;-85
2022/10/10 05:57:26;;;;;;;5.82;3.00;;;;;;;;;;4946149;28;20059;-84
2022/10/10 06:00:13;;;;;;;6.93;2.90;;;;;;;;;;4912503;29;20561;-85
2022/10/10 06:02:57;;;;;;;8.07;2.88;;;;;;;;;;4924894;29;20067;-85
2022/10/10 06:05:52;;;;;;;8.98;3.15;;;;;;;;;;4929950;29;20059;-84
2022/10/10 06:08:38;;;;;;;9.85;3.40;;;;;;;;;;4928931;29;20050;-84
2022/10/10 06:11:26;;;;;;;5.60;2.80;;;;;;;;;;4968882;28;20059;-85
2022/10/10 06:14:09;;;;;;;8.60;2.90;;;;;;;;;;4967607;28;20638;-85
2022/10/10 06:16:53;;;;;;;5.20;2.75;;;;;;;;;;4967811;28;20058;-85
2022/10/10 06:19:36;;;;;;;6.35;2.78;;;;;;;;;;4945033;28;20063;-85
2022/10/10 06:22:44;;;;;;;5.65;2.65;;;;;;;;;;5011198;28;20056;-85
2022/10/10 06:25:38;;;;;;;8.90;2.78;;;;;;;;;;5073055;28;20029;-84
2022/10/10 06:28:20;;;;;;;5.82;3.22;;;;;;;;;;5057265;28;20106;-85
2022/10/10 06:31:07;;;;;;;8.35;3.00;;;;;;;;;;5009169;28;20391;-85
2022/10/10 06:33:52;;;;;;;6.03;3.30;;;;;;;;;;5041746;28;20045;-85
2022/10/10 06:36:37;;;;;;;6.68;2.90;;;;;;;;;;5056029;28;20122;-83
2022/10/10 06:39:08;;;;;;;5.88;3.10;;;;;;;;;;5051920;28;20044;-83
2022/10/10 06:41:36;;;;;;;7.60;3.10;;;;;;;;;;5036077;28;20040;-84
2022/10/10 06:44:10;;;;;;;7.13;2.88;;;;;;;;;;5066777;28;20049;-84
2022/10/10 06:47:04;;;;;;;9.27;3.53;;;;;;;;;;5041013;28;20037;-83
2022/10/10 06:49:56;;;;;;;6.93;3.15;;;;;;;;;;5071235;28;20396;-83
2022/10/10 06:52:24;;;;;;;7.63;3.63;;;;;;;;;;5042687;28;20045;-83
2022/10/10 06:54:54;;;;;;;6.55;3.50;;;;;;;;;;5039542;28;20035;-83
2022/10/10 06:57:45;;;;;;;6.70;3.10;;;;;;;;;;5052791;28;20037;-83
2022/10/10 07:00:14;;;;;;;5.82;2.70;;;;;;;;;;5057547;28;20037;-83
2022/10/10 07:02:42;;;;;;;7.68;3.00;;;;;;;;;;5056321;28;20127;-84
2022/10/10 07:05:15;;;;;;;7.60;3.00;;;;;;;;;;5057972;28;20045;-83
2022/10/10 07:08:08;;;;;;;8.45;3.38;;;;;;;;;;5043175;28;20029;-83
2022/10/10 07:10:42;;;;;;;6.00;3.05;;;;;;;;;;5039891;28;20049;-83
2022/10/10 07:13:24;;;;;;;10.15;3.17;;;;;;;;;;5042935;28;20041;-85
2022/10/10 07:17:07;;;;;;;7.95;3.00;;;;;;;;;;5049352;28;20049;-84
2022/10/10 07:20:14;;;;;;;7.82;2.92;;;;;;;;;;5067879;28;20072;-85
2022/10/10 07:23:19;;;;;;;6.32;2.70;;;;;;;;;;5046202;28;20030;-85
2022/10/10 07:27:31;;;;;;;6.57;3.03;;;;;;;;;;5065156;28;20049;-84
2022/10/10 07:30:24;;;;;;;5.53;3.13;;;;;;;;;;4986473;28;20422;-83
2022/10/10 07:32:54;;;;;;;7.78;2.97;;;;;;;;;;4984023;28;20498;-83
2022/10/10 07:35:24;;;;;;;12.15;3.45;;;;;;;;;;4972179;28;20153;-83
2022/10/10 07:38:17;;;;;;;5.15;2.97;;;;;;;;;;4985879;28;20533;-84
2022/10/10 07:40:56;;;;;;;8.25;2.95;;;;;;;;;;4956091;28;20664;-83
2022/10/10 07:43:38;;;;;;;8.00;3.17;;;;;;;;;;4968728;28;20499;-83
2022/10/10 07:46:20;;;;;;;4.53;2.75;;;;;;;;;;4959323;28;20113;-84
2022/10/10 07:49:02;;;;;;;9.27;2.90;;;;;;;;;;4986472;28;20078;-84
2022/10/10 07:52:27;;;;;;;7.22;3.30;;;;;;;;;;4985177;28;20058;-84
2022/10/10 07:56:44;;;;;;;9.82;3.38;;;;;;;;;;4987461;28;20052;-84
2022/10/10 07:59:50;;;;;;;10.43;3.00;;;;;;;;;;4969582;28;20112;-84
2022/10/10 08:02:57;;;;;;;5.28;2.78;;;;;;;;;;4965714;28;20093;-83
2022/10/10 08:05:31;;;;;;;7.30;2.72;;;;;;;;;;4966840;28;20582;-84
2022/10/10 08:08:00;;;;;;;5.32;2.72;;;;;;;;;;4968225;28;20124;-84
2022/10/10 08:10:27;;;;;;;4.50;2.60;;;;;;;;;;4967023;28;20050;-84
2022/10/10 08:12:56;;;;;;;7.20;2.67;;;;;;;;;;4946142;28;20065;-84
2022/10/10 08:15:24;;;;;;;6.85;3.47;;;;;;;;;;4966582;28;20051;-84
2022/10/10 08:17:55;;;;;;;6.85;2.72;;;;;;;;;;4964130;28;20063;-84
2022/10/10 08:20:30;;;;;;;5.88;3.05;;;;;;;;;;4957224;28;20054;-84
2022/10/10 08:22:57;;;;;;;8.88;2.78;;;;;;;;;;4985701;28;20062;-85
2022/10/10 08:25:57;;;;;;;9.43;2.78;;;;;;;;;;5002631;28;20046;-83
2022/10/10 08:28:33;;;;;;;9.93;2.58;;;;;;;;;;5002831;28;20057;-81
2022/10/10 08:31:26;;;;;;;4.88;2.47;;;;;;;;;;5024790;28;20136;-83
2022/10/10 08:34:00;;;;;;;7.20;2.58;;;;;;;;;;5033693;28;20042;-84
2022/10/10 08:36:27;;;;;;;9.10;2.83;;;;;;;;;;5056877;28;20048;-83
2022/10/10 08:38:58;;;;;;;8.05;2.67;;;;;;;;;;5044377;28;20037;-83
2022/10/10 08:44:57;;;;;;;5.50;2.35;;;;;;;;;;5007576;28;20054;-82
2022/10/10 08:47:49;;;;;;;6.15;2.63;;;;;;;;;;5024466;28;20460;-83
2022/10/10 08:50:22;;;;;;;4.65;2.38;;;;;;;;;;5007882;28;20279;-84
2022/10/10 08:53:01;;;;;;;4.80;2.67;;;;;;;;;;5021149;28;20683;-84
2022/10/10 08:55:56;;;;;;;5.35;2.80;;;;;;;;;;5013340;28;20670;-85
2022/10/10 08:58:49;;;;;;;7.07;2.40;;;;;;;;;;5026738;28;20041;-87
2022/10/10 09:16:13;;;;;;;7.63;2.40;;;;;;;;;;4982611;28;20141;-87
2022/10/10 09:20:26;;;;;;;;;;;;;;;;;;4923798;29;20087;-85
2022/10/10 09:25:09;;;;;;;5.38;2.35;;;;;;;;;;4941295;28;19925;-85
2022/10/10 09:48:32;;;;;;;5.22;1.92;;;;;;;;;;4826557;29;20045;-84
2022/10/10 09:52:46;;;;;;;5.28;2.60;;;;;;;;;;4834652;29;20054;-86
2022/10/10 09:56:40;;;;;;;3.53;1.92;;;;;;;;;;4829356;29;20062;-84
2022/10/10 10:01:12;;;;;;;7.63;2.20;;;;;;;;;;4834405;29;20089;-86
2022/10/10 12:05:15;;;;;;;7.82;1.80;;;;;;;;;;4982815;28;20450;-88
2022/10/10 12:14:32;;;;;;;6.32;2.22;;;;;;;;;;4924225;29;20066;-86
2022/10/10 17:12:59;;;;;;;7.10;3.65;;;;;;;;;;5071112;28;20560;-85
2022/10/10 17:17:16;;;;;;;9.60;4.30;;;;;;;;;;5036747;28;20049;-86
2022/10/10 17:25:27;;;;;;;9.23;4.25;;;;;;;;;;5025407;28;20064;-86
2022/10/10 17:29:22;;;;;;;8.13;4.13;;;;;;;;;;4987209;28;20414;-85
2022/10/10 17:32:57;;;;;;;11.65;4.60;;;;;;;;;;4964835;28;20077;-86
2022/10/10 17:36:58;;;;;;;8.60;4.15;;;;;;;;;;4984947;28;20043;-86
2022/10/10 17:40:59;;;;;;;6.65;3.00;;;;;;;;;;4905869;29;20044;-86
2022/10/10 17:45:07;;;;;;;5.38;2.08;;;;;;;;;;4905055;29;20051;-86
2022/10/10 17:48:40;;;;;;;5.95;1.90;;;;;;;;;;4917997;28;20082;-86
2022/10/10 17:53:15;;;;;;;4.18;1.50;;;;;;;;;;4957753;28;20066;-85
2022/10/10 17:57:50;;;;;;;5.10;1.17;;;;;;;;;;4979769;28;20084;-86
2022/10/10 18:02:16;;;;;;;4.78;1.35;;;;;;;;;;4976498;28;20042;-85
2022/10/10 18:06:29;;;;;;;3.67;1.15;;;;;;;;;;4982295;28;20055;-86
2022/10/10 18:10:23;;;;;;;6.25;1.25;;;;;;;;;;4981585;28;20116;-86
2022/10/10 18:13:24;;;;;;;9.98;1.20;;;;;;;;;;4987518;28;20562;-83
2022/10/10 18:31:32;;;;;;;8.85;1.30;;;;;;;;;;4964916;28;20065;-84
2022/10/10 18:35:20;;;;;;;6.93;1.40;;;;;;;;;;4980524;28;20141;-85
2022/10/10 18:39:21;;;;;;;8.18;1.33;;;;;;;;;;5072266;28;20078;-84
2022/10/10 18:43:26;;;;;;;4.10;1.27;;;;;;;;;;5049385;28;20053;-84
2022/10/10 18:46:13;;;;;;;6.28;1.20;;;;;;;;;;5038212;28;20716;-83
2022/10/10 19:18:58;;;;;;;6.35;1.23;;;;;;;;;;5096823;28;20078;-86
2022/10/10 19:23:24;;;;;;;6.57;1.27;;;;;;;;;;5134811;27;20047;-84
2022/10/10 19:50:52;;;;;;;8.35;2.30;;;;;;;;;;5086464;28;20109;-84
2022/10/10 19:55:06;;;;;;;3.75;1.60;;;;;;;;;;5097038;28;20078;-86
2022/10/10 19:59:33;;;;;;;5.03;1.88;;;;;;;;;;5086468;28;20133;-85
2022/10/10 20:03:29;;;;;;;8.80;1.85;;;;;;;;;;5027490;28;20056;-85
2022/10/10 20:07:39;;;;;;;;;;;;;;;;;;4951570;28;20087;-85
2022/10/10 20:12:06;;;;;;;9.20;2.03;;;;;;;;;;4959659;28;20009;-85
2022/10/10 20:54:35;;;;;;;10.50;2.10;;;;;;;;;;4841305;29;20477;-84
2022/10/10 20:57:16;;;;;;;8.10;1.95;;;;;;;;;;4819290;29;20058;-84
2022/10/10 21:00:47;;;;;;;9.05;2.10;;;;;;;;;;4836891;29;20097;-84
2022/10/10 21:03:30;;;;;;;10.77;2.20;;;;;;;;;;4851188;29;20060;-84
2022/10/10 21:07:12;;;;;;;16.55;2.47;;;;;;;;;;4856953;29;20068;-85
2022/10/10 21:11:13;;;;;;;5.38;1.83;;;;;;;;;;4840854;29;20054;-84
2022/10/10 21:15:33;;;;;;;9.80;2.10;;;;;;;;;;4838159;29;20054;-84
2022/10/10 21:19:23;;;;;;;7.13;1.60;;;;;;;;;;4831928;29;20046;-85
2022/10/10 21:22:32;;;;;;;7.75;1.80;;;;;;;;;;4821626;29;20145;-84
2022/10/10 21:26:17;;;;;;;7.65;1.80;;;;;;;;;;4810860;29;21067;-85
2022/10/10 21:29:42;;;;;;;;;;;;;;;;;;4824146;29;20062;-85
2022/10/10 21:33:12;;;;;;;11.73;1.95;;;;;;;;;;4832568;29;19962;-85
2022/10/10 21:37:13;;;;;;;8.35;1.80;;;;;;;;;;4928561;28;20062;-85
2022/10/10 21:40:40;;;;;;;9.27;2.10;;;;;;;;;;4933961;29;20056;-84
2022/10/10 21:43:51;;;;;;;12.15;2.13;;;;;;;;;;4910044;29;20083;-85
2022/10/10 21:46:35;;;;;;;7.72;2.00;;;;;;;;;;4952761;28;20105;-83
2022/10/10 21:50:41;;;;;;;9.70;2.10;;;;;;;;;;5058189;28;20048;-85
2022/10/10 21:53:28;;;;;;;6.30;1.90;;;;;;;;;;5052273;28;20060;-84
2022/10/10 21:57:19;;;;;;;6.03;1.85;;;;;;;;;;5070428;28;20048;-84
2022/10/10 22:01:26;;;;;;;8.88;2.17;;;;;;;;;;5068211;28;20079;-85
2022/10/10 22:05:32;;;;;;;10.73;1.70;;;;;;;;;;5056199;28;20056;-85
2022/10/10 22:09:56;;;;;;;8.27;1.90;;;;;;;;;;5128601;27;20085;-85
2022/10/10 22:13:18;;;;;;;7.68;1.60;;;;;;;;;;5131927;27;20054;-84
2022/10/10 22:16:41;;;;;;;7.45;2.20;;;;;;;;;;5109198;27;20135;-83
2022/10/10 22:20:46;;;;;;;8.15;1.88;;;;;;;;;;5082069;28;20450;-84
2022/10/10 22:23:28;;;;;;;8.93;1.83;;;;;;;;;;5068908;28;20094;-84
2022/10/10 22:31:03;;;;;;;5.50;1.95;;;;;;;;;;5051073;28;20040;-84
2022/10/10 22:33:36;;;;;;;4.38;1.38;;;;;;;;;;5018387;28;20613;-84
2022/10/10 22:36:19;;;;;;;12.32;1.90;;;;;;;;;;5017435;28;20106;-84
2022/10/10 22:39:45;;;;;;;12.63;1.88;;;;;;;;;;5037709;28;20049;-85
2022/10/10 22:43:01;;;;;;;11.07;2.00;;;;;;;;;;5050608;28;20136;-83
2022/10/10 22:45:28;;;;;;;14.40;1.80;;;;;;;;;;5033166;28;20057;-82
2022/10/10 22:48:10;;;;;;;8.52;1.90;;;;;;;;;;5041726;28;20059;-82
2022/10/10 22:50:37;;;;;;;7.85;1.83;;;;;;;;;;5064464;28;20040;-82
2022/10/10 22:53:24;;;;;;;11.40;2.42;;;;;;;;;;5092369;28;20055;-83
2022/10/10 22:56:14;;;;;;;5.30;1.73;;;;;;;;;;5078860;27;20148;-84
2022/10/10 22:59:20;;;;;;;14.00;1.77;;;;;;;;;;5117452;27;20540;-83
2022/10/10 23:02:02;;;;;;;12.52;1.95;;;;;;;;;;5072484;27;20058;-83
2022/10/10 23:05:10;;;;;;;7.93;1.77;;;;;;;;;;5059145;28;20552;-84
2022/10/10 23:08:19;;;;;;;7.00;1.70;;;;;;;;;;5061884;28;20076;-84
2022/10/10 23:11:23;;;;;;;4.70;1.42;;;;;;;;;;5066101;28;20057;-84
2022/10/10 23:14:06;;;;;;;9.60;1.77;;;;;;;;;;5077428;28;20045;-83
2022/10/10 23:17:32;;;;;;;11.18;1.83;;;;;;;;;;5045560;28;20193;-84
2022/10/10 23:20:19;;;;;;;6.70;1.58;;;;;;;;;;5037520;28;20110;-83
2022/10/10 23:23:21;;;;;;;8.75;1.60;;;;;;;;;;5051168;28;20429;-84
2022/10/10 23:26:12;;;;;;;4.10;1.30;;;;;;;;;;5034106;28;20470;-84
2022/10/10 23:28:59;;;;;;;9.50;1.80;;;;;;;;;;5037668;28;20073;-84
2022/10/10 23:31:28;;;;;;;8.65;2.00;;;;;;;;;;5042639;28;20532;-83
2022/10/10 23:34:14;;;;;;;9.48;2.15;;;;;;;;;;5039247;28;20127;-83
2022/10/10 23:37:06;;;;;;;5.55;1.40;;;;;;;;;;5088308;28;20043;-83
2022/10/10 23:39:34;;;;;;;10.30;1.92;;;;;;;;;;5081562;28;20530;-83
2022/10/10 23:42:19;;;;;;;9.63;1.80;;;;;;;;;;5096347;28;20061;-83
2022/10/10 23:45:02;;;;;;;10.25;2.03;;;;;;;;;;5114832;28;20047;-83
2022/10/10 23:47:35;;;;;;;9.93;1.88;;;;;;;;;;5119765;27;20425;-84
2022/10/10 23:50:18;;;;;;;6.22;1.38;;;;;;;;;;5121601;27;20399;-83
2022/10/10 23:53:04;;;;;;;8.77;1.52;;;;;;;;;;5123408;27;20046;-83
2022/10/10 23:55:48;;;;;;;7.97;1.77;;;;;;;;;;5118029;27;20051;-83
2022/10/10 23:58:40;;;;;;;9.18;1.75;;;;;;;;;;5077030;27;20051;-84
